Terminal Aerodrome Forecast
Issued by NWS Denver/Boulder, CO

Home | Current Version | Previous Version | Text Only | Print | Product List | Glossary On
Versions: 1 2 3 4 5 6 7 8 9 10 11 12 13 14 15 16 17 18 19 20 21 22 23 24 25 26 27 28 29 30 31 32 33 34 35 36 37 38 39
000
FTUS45 KBOU 311505 AAA
TAFDEN
TAF AMD
KDEN 311505Z 3115/0118 12005KT P6SM BKN014 BKN025
     FM311800 09010KT P6SM BKN022 BKN045
     FM312100 07013KT P6SM VCTS SCT030CB BKN060
      TEMPO 3122/0102 6SM SHRA OVC030
     FM010300 13007KT P6SM SCT025 BKN040 PROB30 0103/0106 -SHRA
     FM010900 18007KT P6SM VCFG SCT015 BKN040
     FM011500 12006KT P6SM SCT040 SCT080=

USA.gov is the U.S. government's official web portal to all federal, state and local government web resources and services.